.
WxDataArchive / Data Records for 2015-08-27
2015-08-26 August 2015 2015-08-28

Data Records for Thursday, 27 August 2015

Time	Temp	Chill	HIndex	Humid	Dewpt	 Wind 	HiWind	WindDir	Rain 	Barom
-----	----	-----	------	-----	-----	------	------	-------	-----	-----
00:00	60.2	60.2	60.2	86	56.0	0	0	---	0.00	30.126 
00:05	60.2	60.2	60.2	86	56.0	0	0	---	0.00	30.126 
00:10	60.2	60.2	60.2	86	56.0	0	0	---	0.00	30.126 
00:15	60.1	60.1	60.1	86	55.9	0	0	---	0.00	30.123 
00:20	59.9	59.9	59.9	86	55.7	0	0	---	0.00	30.123 
00:25	59.8	59.8	59.8	86	55.6	0	0	---	0.00	30.123 
00:30	59.6	59.6	59.6	86	55.4	0	0	---	0.00	30.125 
00:35	59.5	59.5	59.5	87	55.6	0	1	315	0.00	30.125 
00:40	59.3	59.3	59.3	87	55.4	0	0	---	0.00	30.125 
00:45	59.2	59.2	59.2	87	55.3	0	0	---	0.00	30.127 
00:50	59.0	59.0	59.0	87	55.1	0	0	---	0.00	30.127 
00:55	58.9	58.9	58.9	88	55.3	0	0	---	0.00	30.127 
01:00	58.7	58.7	58.7	88	55.2	0	0	---	0.00	30.128 
01:05	58.4	58.4	58.4	88	54.9	0	0	---	0.00	30.128 
01:10	58.3	58.3	58.3	88	54.8	0	0	---	0.00	30.128 
01:15	58.1	58.1	58.1	88	54.6	0	0	---	0.00	30.128 
01:20	58.0	58.0	58.0	88	54.5	0	0	---	0.00	30.128 
01:25	57.8	57.8	57.8	89	54.6	0	0	---	0.00	30.128 
01:30	57.5	57.5	57.5	89	54.3	0	0	---	0.00	30.130 
01:35	57.3	57.3	57.3	89	54.1	0	0	---	0.00	30.130 
01:40	57.0	57.0	57.0	89	53.8	0	0	---	0.00	30.130 
01:45	56.9	56.9	56.9	89	53.7	0	0	---	0.00	30.128 
01:50	56.6	56.6	56.6	89	53.4	0	0	---	0.00	30.128 
01:55	56.5	56.5	56.5	90	53.6	0	0	---	0.00	30.128 
02:00	56.2	56.2	56.2	90	53.3	0	0	---	0.00	30.130 
02:05	56.0	56.0	56.0	90	53.1	0	0	---	0.00	30.130 
02:10	55.9	55.9	55.9	91	53.3	0	0	---	0.00	30.130 
02:15	55.7	55.7	55.7	91	53.1	0	0	---	0.00	30.129 
02:20	55.6	55.6	55.6	91	53.0	0	0	---	0.00	30.129 
02:25	55.4	55.4	55.4	91	52.8	0	0	---	0.00	30.129 
02:30	55.1	55.1	55.1	91	52.5	0	0	---	0.00	30.128 
02:35	55.0	55.0	55.0	91	52.4	0	0	---	0.00	30.128 
02:40	54.8	54.8	54.8	91	52.2	0	0	---	0.00	30.128 
02:45	54.8	54.8	54.8	92	52.5	0	0	---	0.00	30.126 
02:50	54.8	54.8	54.8	92	52.5	0	0	---	0.00	30.126 
02:55	54.8	54.8	54.8	92	52.5	0	0	---	0.00	30.126 
03:00	54.7	54.7	54.7	92	52.4	0	0	---	0.00	30.128 
03:05	54.7	54.7	54.7	92	52.4	0	0	---	0.00	30.128 
03:10	54.5	54.5	54.5	92	52.2	0	0	---	0.00	30.128 
03:15	54.4	54.4	54.4	92	52.1	0	0	---	0.00	30.122 
03:20	54.2	54.2	54.2	92	51.9	0	0	---	0.00	30.122 
03:25	54.1	54.1	54.1	92	51.8	0	0	---	0.00	30.122 
03:30	53.9	53.9	53.9	92	51.6	0	0	---	0.00	30.123 
03:35	53.8	53.8	53.8	92	51.5	0	0	---	0.00	30.123 
03:40	53.6	53.6	53.6	92	51.3	0	0	---	0.00	30.123 
03:45	53.6	53.6	53.6	93	51.6	0	0	---	0.00	30.127 
03:50	53.5	53.5	53.5	93	51.5	0	0	---	0.00	30.127 
03:55	53.3	53.3	53.3	93	51.3	0	0	---	0.00	30.127 
04:00	53.3	53.3	53.3	93	51.3	0	0	---	0.00	30.128 
04:05	53.2	53.2	53.2	93	51.2	0	0	---	0.00	30.128 
04:10	53.1	53.1	53.1	93	51.1	0	0	---	0.00	30.128 
04:15	52.9	52.9	52.9	93	50.9	0	0	---	0.00	30.132 
04:20	52.9	52.9	52.9	93	50.9	0	0	---	0.00	30.132 
04:25	52.8	52.8	52.8	93	50.8	0	0	---	0.00	30.132 
04:30	52.6	52.6	52.6	93	50.6	0	0	---	0.00	30.132 
04:35	52.6	52.6	52.6	93	50.6	0	0	---	0.00	30.132 
04:40	52.6	52.6	52.6	93	50.6	0	0	---	0.00	30.132 
04:45	52.6	52.6	52.6	93	50.6	0	0	---	0.00	30.133 
04:50	52.6	52.6	52.6	94	50.9	0	0	---	0.00	30.133 
04:55	52.6	52.6	52.6	93	50.6	0	0	---	0.00	30.133 
05:00	52.5	52.5	52.5	93	50.5	0	0	---	0.00	30.134 
05:05	52.5	52.5	52.5	94	50.8	0	0	---	0.00	30.134 
05:10	52.3	52.3	52.3	94	50.6	0	0	---	0.00	30.134 
05:15	52.2	52.2	52.2	94	50.5	0	0	---	0.00	30.137 
05:20	52.2	52.2	52.2	94	50.5	0	0	---	0.00	30.137 
05:25	52.0	52.0	52.0	94	50.3	0	0	---	0.00	30.137 
05:30	52.0	52.0	52.0	94	50.3	0	0	---	0.00	30.136 
05:35	51.9	51.9	51.9	94	50.2	0	0	---	0.00	30.136 
05:40	51.7	51.7	51.7	94	50.0	0	0	---	0.00	30.136 
05:45	51.6	51.6	51.6	94	49.9	0	0	---	0.00	30.141 
05:50	51.6	51.6	51.6	94	49.9	0	0	---	0.00	30.141 
05:55	51.4	51.4	51.4	94	49.7	0	0	---	0.00	30.141 
06:00	51.3	51.3	51.3	94	49.6	0	0	---	0.00	30.140 
06:05	51.3	51.3	51.3	94	49.6	0	0	---	0.00	30.140 
06:10	51.1	51.1	51.1	94	49.4	0	0	---	0.00	30.140 
06:15	51.1	51.1	51.1	94	49.4	0	0	---	0.00	30.145 
06:20	51.1	51.1	51.1	94	49.4	0	0	---	0.00	30.145 
06:25	51.1	51.1	51.1	94	49.4	0	0	---	0.00	30.145 
06:30	51.1	51.1	51.1	94	49.4	0	0	---	0.00	30.147 
06:35	51.1	51.1	51.1	94	49.4	0	0	---	0.00	30.147 
06:40	51.0	51.0	51.0	94	49.3	0	0	---	0.00	30.147 
06:45	51.0	51.0	51.0	94	49.3	0	0	---	0.00	30.151 
06:50	50.8	50.8	50.8	94	49.1	0	0	---	0.00	30.151 
06:55	51.0	51.0	51.0	94	49.3	0	0	---	0.00	30.151 
07:00	51.0	51.0	51.0	94	49.3	0	0	---	0.00	30.155 
07:05	51.1	51.1	51.1	95	49.7	0	0	---	0.00	30.155 
07:10	51.3	51.3	51.3	95	49.9	0	0	---	0.00	30.155 
07:15	51.6	51.6	51.6	95	50.2	0	0	---	0.00	30.158 
07:20	51.7	51.7	51.7	95	50.3	0	0	---	0.00	30.158 
07:25	51.7	51.7	51.7	95	50.3	0	0	---	0.00	30.158 
07:30	52.0	52.0	52.0	95	50.6	0	0	---	0.00	30.161 
07:35	52.2	52.2	52.2	95	50.8	0	0	---	0.00	30.161 
07:40	52.5	52.5	52.5	95	51.1	0	0	---	0.00	30.161 
07:45	52.6	52.6	52.6	95	51.2	0	0	---	0.00	30.161 
07:50	52.8	52.8	52.8	95	51.4	0	0	---	0.00	30.161 
07:55	53.2	53.2	53.2	95	51.8	0	0	---	0.00	30.161 
08:00	53.5	53.5	53.5	95	52.1	0	0	---	0.00	30.164 
08:05	53.9	53.9	53.9	95	52.5	0	0	---	0.00	30.164 
08:10	54.4	54.4	54.4	95	53.0	0	0	---	0.00	30.164 
08:15	54.8	54.8	54.8	95	53.4	0	1	315	0.00	30.171 
08:20	55.3	55.3	55.3	95	53.9	0	1	315	0.00	30.171 
08:25	55.6	55.6	55.6	95	54.2	0	1	315	0.00	30.171 
08:30	56.0	56.0	56.0	95	54.6	0	1	315	0.00	30.176 
08:35	56.6	56.6	56.6	95	55.2	0	1	315	0.00	30.176 
08:40	57.2	57.2	57.2	95	55.8	0	0	---	0.00	30.176 
08:45	57.8	57.8	57.8	95	56.4	0	0	---	0.00	30.175 
08:50	58.0	58.0	58.0	94	56.3	0	2	315	0.00	30.175 
08:55	58.0	58.0	58.0	94	56.3	0	1	315	0.00	30.175 
09:00	58.1	58.1	58.1	93	56.1	0	1	315	0.00	30.181 
09:05	58.4	58.4	58.4	93	56.4	0	1	315	0.00	30.181 
09:10	58.6	58.6	58.6	93	56.6	0	1	315	0.00	30.181 
09:15	58.9	58.9	58.9	92	56.6	0	3	68	0.00	30.179 
09:20	59.0	59.0	59.0	91	56.4	0	1	68	0.00	30.179 
09:25	59.3	59.3	59.3	90	56.4	0	3	68	0.00	30.179 
09:30	59.5	59.5	59.5	89	56.3	0	1	68	0.00	30.177 
09:35	59.8	59.8	59.8	88	56.2	0	1	68	0.00	30.177 
09:40	60.1	60.1	60.1	87	56.2	0	3	68	0.00	30.177 
09:45	60.5	60.5	60.5	87	56.6	0	2	68	0.00	30.184 
09:50	60.9	60.9	60.9	86	56.7	0	3	68	0.00	30.184 
09:55	61.2	61.2	61.2	85	56.6	0	2	68	0.00	30.184 
10:00	61.3	61.3	61.3	84	56.4	1	4	68	0.00	30.180 
10:05	61.6	61.6	61.6	83	56.4	0	1	68	0.00	30.180 
10:10	62.1	62.1	62.1	83	56.9	0	1	68	0.00	30.180 
10:15	62.4	62.4	62.4	82	56.8	0	3	68	0.00	30.189 
10:20	62.9	62.9	62.9	81	57.0	0	1	68	0.00	30.189 
10:25	63.4	63.4	63.4	80	57.1	1	3	68	0.00	30.189 
10:30	64.2	64.2	64.2	78	57.2	0	2	68	0.00	30.189 
10:35	64.8	64.8	64.8	75	56.7	0	2	68	0.00	30.189 
10:40	65.5	65.5	65.5	74	57.0	1	4	90	0.00	30.189 
10:45	65.6	65.6	65.6	73	56.7	0	2	90	0.00	30.189 
10:50	66.1	66.1	66.1	72	56.8	0	1	90	0.00	30.189 
10:55	66.6	66.6	66.6	72	57.3	0	1	90	0.00	30.189 
11:00	66.9	66.9	66.9	72	57.6	0	2	90	0.00	30.192 
11:05	67.4	67.4	67.4	71	57.7	0	3	90	0.00	30.192 
11:10	67.3	67.3	67.3	69	56.8	0	2	90	0.00	30.192 
11:15	66.6	66.6	66.6	69	56.1	0	1	90	0.00	30.190 
11:20	66.4	66.4	66.4	70	56.3	0	2	90	0.00	30.190 
11:25	66.6	66.6	66.6	70	56.5	0	1	90	0.00	30.190 
11:30	66.4	66.4	66.4	70	56.3	0	1	90	0.00	30.194 
11:35	66.1	66.1	66.1	70	56.0	0	2	90	0.00	30.194 
11:40	66.0	66.0	66.0	70	55.9	0	2	90	0.00	30.194 
11:45	66.8	66.8	66.8	71	57.1	0	2	90	0.00	30.184 
11:50	67.6	67.6	67.6	68	56.7	0	2	90	0.00	30.184 
11:55	67.6	67.6	67.6	67	56.2	0	1	90	0.00	30.184 
12:00	67.6	67.6	67.6	67	56.2	1	2	90	0.00	30.170 
12:05	67.1	67.1	67.1	67	55.8	0	1	90	0.00	30.170 
12:10	66.8	66.8	66.8	68	55.9	0	1	90	0.00	30.170 
12:15	66.8	66.8	66.8	67	55.5	0	2	90	0.00	30.169 
12:20	66.9	66.9	66.9	67	55.6	0	1	90	0.00	30.169 
12:25	66.9	66.9	66.9	67	55.6	0	1	90	0.00	30.169 
12:30	67.3	67.3	67.3	68	56.4	0	2	90	0.00	30.157 
12:35	67.6	67.6	67.6	66	55.8	0	2	90	0.00	30.157 
12:40	67.8	67.8	67.8	68	56.8	0	2	90	0.00	30.157 
12:45	67.6	67.6	67.6	63	54.5	1	3	90	0.00	30.156 
12:50	67.6	67.6	67.6	64	55.0	0	1	90	0.00	30.156 
12:55	67.8	67.8	67.8	66	56.0	0	1	90	0.00	30.156 
13:00	67.9	67.9	67.9	65	55.7	0	1	90	0.00	30.151 
13:05	68.1	68.1	68.1	62	54.6	0	2	90	0.00	30.151 
13:10	68.8	68.8	68.8	64	56.1	0	2	90	0.00	30.151 
13:15	69.4	69.4	69.4	62	55.8	0	3	90	0.00	30.142 
13:20	69.6	69.6	69.6	59	54.6	0	2	90	0.00	30.142 
13:25	69.3	69.3	69.3	61	55.3	0	1	90	0.00	30.142 
13:30	69.1	69.1	69.1	59	54.2	0	2	90	0.00	30.140 
13:35	69.1	69.1	69.1	61	55.1	0	2	90	0.00	30.140 
13:40	69.3	69.3	69.3	62	55.7	0	2	90	0.00	30.140 
13:45	69.3	69.3	69.3	61	55.3	1	3	90	0.00	30.136 
13:50	69.4	69.4	69.4	60	54.9	0	2	90	0.00	30.136 
13:55	69.8	69.8	69.8	58	54.3	0	1	90	0.00	30.136 
14:00	70.1	70.1	70.1	61	56.0	0	3	90	0.00	30.129 
14:05	69.9	69.9	69.9	59	54.9	1	4	90	0.00	30.129 
14:10	69.8	69.8	69.8	59	54.8	1	3	90	0.00	30.129 
14:15	69.8	69.8	69.8	59	54.8	0	2	90	0.00	30.131 
14:20	69.9	69.9	69.9	58	54.4	0	2	90	0.00	30.131 
14:25	70.1	70.1	70.1	58	54.6	0	1	90	0.00	30.131 
14:30	70.3	70.3	70.3	58	54.8	0	2	90	0.00	30.130 
14:35	70.4	70.4	70.4	57	54.4	1	4	90	0.00	30.130 
14:40	70.8	70.8	70.8	56	54.3	0	3	90	0.00	30.130 
14:45	70.6	70.6	70.6	57	54.6	1	3	90	0.00	30.132 
14:50	70.4	70.4	70.4	57	54.4	0	2	90	0.00	30.132 
14:55	70.3	70.3	70.3	58	54.8	0	1	90	0.00	30.132 
15:00	70.3	70.3	70.3	59	55.3	0	2	90	0.00	30.138 
15:05	70.3	70.3	70.3	56	53.8	0	2	90	0.00	30.138 
15:10	70.4	70.4	70.4	57	54.4	0	2	90	0.00	30.138 
15:15	70.6	70.6	70.6	56	54.1	0	2	202	0.00	30.138 
15:20	70.6	70.6	70.6	59	55.6	0	1	202	0.00	30.138 
15:25	70.8	70.8	70.8	59	55.7	0	1	202	0.00	30.138 
15:30	70.9	70.9	70.9	58	55.4	0	3	202	0.00	30.133 
15:35	70.9	70.9	70.9	58	55.4	0	1	202	0.00	30.133 
15:40	70.8	70.8	70.8	58	55.3	0	0	---	0.00	30.133 
15:45	70.9	70.9	70.9	57	54.9	0	1	202	0.00	30.131 
15:50	71.1	71.1	71.1	58	55.6	0	1	202	0.00	30.131 
15:55	71.3	71.3	71.3	58	55.7	0	1	202	0.00	30.131 
16:00	71.3	71.3	71.3	59	56.2	0	1	202	0.00	30.131 
16:05	71.5	71.5	71.5	56	55.0	0	1	202	0.00	30.131 
16:10	71.5	71.5	71.5	54	54.0	0	1	202	0.00	30.131 
16:15	71.3	71.3	71.3	56	54.8	0	2	202	0.00	30.132 
16:20	71.5	71.5	71.5	55	54.5	0	2	202	0.00	30.132 
16:25	71.8	71.8	71.8	58	56.2	0	1	202	0.00	30.132 
16:30	72.5	72.5	72.5	58	56.9	0	2	202	0.00	30.129 
16:35	72.8	72.8	72.8	55	55.7	0	3	202	0.00	30.129 
16:40	73.2	73.2	73.2	53	55.0	0	1	202	0.00	30.129 
16:45	73.0	73.0	73.0	53	54.8	0	1	202	0.00	30.129 
16:50	72.7	72.7	72.7	54	55.1	0	1	202	0.00	30.129 
16:55	72.3	72.3	72.3	54	54.7	0	1	202	0.00	30.129 
17:00	72.1	72.1	72.1	54	54.5	0	1	202	0.00	30.128 
17:05	72.1	72.1	72.1	54	54.5	0	0	---	0.00	30.128 
17:10	72.1	72.1	72.1	56	55.5	0	0	---	0.00	30.128 
17:15	72.1	72.1	72.1	55	55.0	0	1	202	0.00	30.127 
17:20	72.0	72.0	72.0	55	54.9	1	2	202	0.00	30.127 
17:25	71.8	71.8	71.8	56	55.2	0	1	202	0.00	30.127 
17:30	71.6	71.6	71.6	54	54.1	0	1	202	0.00	30.125 
17:35	71.6	71.6	71.6	56	55.1	0	1	202	0.00	30.125 
17:40	71.5	71.5	71.5	56	55.0	0	1	202	0.00	30.125 
17:45	71.3	71.3	71.3	56	54.8	0	2	202	0.00	30.122 
17:50	71.3	71.3	71.3	56	54.8	0	1	202	0.00	30.122 
17:55	71.1	71.1	71.1	56	54.6	0	2	202	0.00	30.122 
18:00	70.9	70.9	70.9	55	53.9	0	1	202	0.00	30.124 
18:05	70.9	70.9	70.9	56	54.4	0	2	202	0.00	30.124 
18:10	70.9	70.9	70.9	57	54.9	0	0	---	0.00	30.124 
18:15	70.9	70.9	70.9	57	54.9	0	1	202	0.00	30.124 
18:20	70.9	70.9	70.9	57	54.9	0	1	202	0.00	30.124 
18:25	70.9	70.9	70.9	58	55.4	0	0	---	0.00	30.124 
18:30	70.9	70.9	70.9	58	55.4	0	1	202	0.00	30.124 
18:35	70.8	70.8	70.8	57	54.8	0	1	202	0.00	30.124 
18:40	70.6	70.6	70.6	58	55.1	0	1	202	0.00	30.124 
18:45	70.4	70.4	70.4	59	55.4	0	1	202	0.00	30.117 
18:50	70.3	70.3	70.3	59	55.3	0	1	202	0.00	30.117 
18:55	70.1	70.1	70.1	60	55.6	0	0	---	0.00	30.117 
19:00	69.9	69.9	69.9	61	55.8	0	0	---	0.00	30.116 
19:05	69.8	69.8	69.8	62	56.2	0	1	202	0.00	30.116 
19:10	69.4	69.4	69.4	62	55.8	0	0	---	0.00	30.116 
19:15	69.3	69.3	69.3	63	56.2	0	0	---	0.00	30.113 
19:20	69.1	69.1	69.1	63	56.0	0	0	---	0.00	30.113 
19:25	68.9	68.9	68.9	64	56.2	0	0	---	0.00	30.113 
19:30	68.8	68.8	68.8	64	56.1	0	0	---	0.00	30.112 
19:35	68.6	68.6	68.6	64	55.9	0	0	---	0.00	30.112 
19:40	68.6	68.6	68.6	65	56.4	0	0	---	0.00	30.112 
19:45	68.4	68.4	68.4	65	56.2	0	0	---	0.00	30.109 
19:50	68.3	68.3	68.3	65	56.1	0	0	---	0.00	30.109 
19:55	68.1	68.1	68.1	66	56.3	0	0	---	0.00	30.109 
20:00	67.8	67.8	67.8	66	56.0	0	0	---	0.00	30.111 
20:05	67.4	67.4	67.4	67	56.1	0	0	---	0.00	30.111 
20:10	67.1	67.1	67.1	68	56.2	0	0	---	0.00	30.111 
20:15	66.6	66.6	66.6	69	56.1	0	0	---	0.00	30.115 
20:20	66.3	66.3	66.3	69	55.8	0	0	---	0.00	30.115 
20:25	66.0	66.0	66.0	70	55.9	0	0	---	0.00	30.115 
20:30	65.6	65.6	65.6	71	55.9	0	0	---	0.00	30.121 
20:35	65.2	65.2	65.2	73	56.3	0	0	---	0.00	30.121 
20:40	64.8	64.8	64.8	74	56.3	0	0	---	0.00	30.121 
20:45	64.5	64.5	64.5	75	56.4	0	0	---	0.00	30.127 
20:50	64.2	64.2	64.2	76	56.5	0	0	---	0.00	30.127 
20:55	63.9	63.9	63.9	77	56.5	0	0	---	0.00	30.127 
21:00	63.5	63.5	63.5	79	56.9	0	0	---	0.00	30.127 
21:05	63.2	63.2	63.2	80	56.9	0	0	---	0.00	30.127 
21:10	62.7	62.7	62.7	80	56.4	0	0	---	0.00	30.127 
21:15	62.4	62.4	62.4	81	56.5	0	0	---	0.00	30.127 
21:20	62.1	62.1	62.1	81	56.2	0	0	---	0.00	30.127 
21:25	62.0	62.0	62.0	82	56.4	0	0	---	0.00	30.127 
21:30	61.8	61.8	61.8	83	56.6	0	0	---	0.00	30.129 
21:35	61.5	61.5	61.5	83	56.3	0	0	---	0.00	30.129 
21:40	61.3	61.3	61.3	84	56.4	0	0	---	0.00	30.129 
21:45	61.2	61.2	61.2	84	56.3	0	0	---	0.00	30.127 
21:50	61.0	61.0	61.0	84	56.1	0	0	---	0.00	30.127 
21:55	60.9	60.9	60.9	84	56.0	0	0	---	0.00	30.127 
22:00	60.5	60.5	60.5	85	56.0	0	0	---	0.00	30.128 
22:05	60.5	60.5	60.5	85	56.0	0	0	---	0.00	30.128 
22:10	60.5	60.5	60.5	86	56.3	0	1	202	0.00	30.128 
22:15	60.7	60.7	60.7	86	56.5	0	1	202	0.00	30.122 
22:20	60.9	60.9	60.9	85	56.4	0	0	---	0.00	30.122 
22:25	61.0	61.0	61.0	85	56.5	0	1	202	0.00	30.122 
22:30	61.2	61.2	61.2	84	56.3	0	1	202	0.00	30.122 
22:35	61.3	61.3	61.3	84	56.4	0	1	202	0.00	30.122 
22:40	61.5	61.5	61.5	83	56.3	0	2	90	0.00	30.122 
22:45	61.5	61.5	61.5	83	56.3	0	1	90	0.00	30.123 
22:50	61.5	61.5	61.5	83	56.3	0	2	90	0.00	30.123 
22:55	61.5	61.5	61.5	83	56.3	0	1	90	0.00	30.123 
23:00	61.3	61.3	61.3	83	56.1	0	1	90	0.00	30.123 
23:05	61.2	61.2	61.2	83	56.0	0	1	90	0.00	30.123 
23:10	61.0	61.0	61.0	84	56.1	0	1	90	0.00	30.123 
23:15	60.9	60.9	60.9	84	56.0	0	1	90	0.00	30.125 
23:20	60.7	60.7	60.7	84	55.8	0	1	90	0.00	30.125 
23:25	60.5	60.5	60.5	84	55.6	0	1	90	0.00	30.125 
23:30	60.4	60.4	60.4	84	55.5	0	1	90	0.00	30.123 
23:35	60.4	60.4	60.4	85	55.9	0	1	90	0.00	30.123 
23:40	60.2	60.2	60.2	85	55.7	0	1	90	0.00	30.123 
23:45	60.1	60.1	60.1	85	55.6	0	2	90	0.00	30.120 
23:50	60.1	60.1	60.1	85	55.6	0	2	90	0.00	30.120 
23:55	59.9	59.9	59.9	85	55.4	0	0	---	0.00	30.120 

CoCoRaHS
IN-AL-39
A2 Web Hosting
Creative Commons License
GoDaddy
search engine by freefind advanced

loaded 2018-11-12 15:44:52 • last modified 2010-11-18 10:43:29
Privacy PolicyDisclaimer
• wx.awcolley.com is powered by PmWiki v.2002016 •
• all content (unless otherwise noted) © 2018 A W Colley